Time;durP1;ratioP1;P1;durP2;ratioP2;P2;SDS_P1;SDS_P2;PMS_P1;PMS_P2;Temp;Humidity;BMP_temperature;BMP_pressure;BME280_temperature;BME280_humidity;BME280_pressure;Samples;Min_cycle;Max_cycle;Signal;HPM_P1;HPM_P2
2022/09/29 00:00:38;;;;;;;4.45;2.22;;;;;;;;;;2084557;28;20045;-79
2022/09/29 00:01:57;;;;;;;2.63;2.42;;;;;;;;;;2086632;28;20176;-79
2022/09/29 00:03:17;;;;;;;2.58;2.38;;;;;;;;;;2078827;28;20459;-79
2022/09/29 00:04:36;;;;;;;4.70;2.72;;;;;;;;;;2085100;28;20474;-79
2022/09/29 00:05:55;;;;;;;3.97;2.35;;;;;;;;;;2088475;28;20033;-79
2022/09/29 00:07:14;;;;;;;3.90;2.45;;;;;;;;;;2088894;28;20025;-79
2022/09/29 00:08:33;;;;;;;3.00;2.80;;;;;;;;;;2088485;28;20538;-79
2022/09/29 00:09:52;;;;;;;5.57;2.20;;;;;;;;;;2089402;28;20486;-79
2022/09/29 00:11:16;;;;;;;2.33;2.13;;;;;;;;;;2089033;28;20056;-79
2022/09/29 00:12:35;;;;;;;4.43;2.08;;;;;;;;;;2087182;28;20029;-79
2022/09/29 00:13:54;;;;;;;2.30;2.10;;;;;;;;;;2088354;28;20401;-79
2022/09/29 00:15:14;;;;;;;2.30;2.08;;;;;;;;;;2079196;28;20049;-79
2022/09/29 00:16:33;;;;;;;3.33;2.30;;;;;;;;;;2085651;28;20028;-79
2022/09/29 00:17:52;;;;;;;4.20;2.38;;;;;;;;;;2080506;28;20033;-79
2022/09/29 00:19:11;;;;;;;3.40;2.05;;;;;;;;;;2085299;28;20541;-79
2022/09/29 00:20:30;;;;;;;2.33;2.13;;;;;;;;;;2087239;28;20081;-79
2022/09/29 00:21:49;;;;;;;3.70;2.10;;;;;;;;;;2077461;28;20033;-79
2022/09/29 00:23:07;;;;;;;2.63;1.90;;;;;;;;;;2083427;28;20509;-79
2022/09/29 00:24:26;;;;;;;2.30;2.10;;;;;;;;;;2088712;28;20537;-79
2022/09/29 00:25:45;;;;;;;2.42;2.22;;;;;;;;;;2088954;28;20112;-79
2022/09/29 00:27:04;;;;;;;2.58;2.38;;;;;;;;;;2089227;28;20466;-79
2022/09/29 00:28:23;;;;;;;2.30;2.10;;;;;;;;;;2089091;28;20029;-79
2022/09/29 00:29:42;;;;;;;2.20;1.80;;;;;;;;;;2078986;28;20029;-79
2022/09/29 00:31:01;;;;;;;2.33;1.92;;;;;;;;;;2083560;28;20123;-79
2022/09/29 00:32:20;;;;;;;3.92;2.30;;;;;;;;;;2089194;28;20029;-79
2022/09/29 00:33:39;;;;;;;4.22;2.13;;;;;;;;;;2089069;28;20053;-79
2022/09/29 00:34:58;;;;;;;2.47;2.28;;;;;;;;;;2077213;28;20057;-79
2022/09/29 00:36:18;;;;;;;3.75;2.08;;;;;;;;;;2084776;28;21168;-79
2022/09/29 00:37:37;;;;;;;4.07;2.45;;;;;;;;;;2089064;28;20060;-79
2022/09/29 00:38:57;;;;;;;2.50;2.30;;;;;;;;;;2080024;28;20037;-79
2022/09/29 00:40:16;;;;;;;2.90;2.70;;;;;;;;;;2078883;28;20033;-79
2022/09/29 00:41:36;;;;;;;2.67;2.42;;;;;;;;;;2084822;28;20474;-79
2022/09/29 00:42:56;;;;;;;2.50;2.20;;;;;;;;;;2078789;28;20041;-78
2022/09/29 00:44:14;;;;;;;3.72;2.30;;;;;;;;;;2085910;28;20032;-78
2022/09/29 00:45:33;;;;;;;5.30;2.40;;;;;;;;;;2086360;28;20025;-79
2022/09/29 00:46:55;;;;;;;2.65;2.30;;;;;;;;;;2086635;28;20037;-79
2022/09/29 00:48:18;;;;;;;2.75;2.42;;;;;;;;;;2088353;28;20056;-78
2022/09/29 00:49:40;;;;;;;2.70;2.45;;;;;;;;;;2089122;28;20025;-79
2022/09/29 00:50:59;;;;;;;3.00;2.80;;;;;;;;;;2088390;28;20029;-79
2022/09/29 00:52:21;;;;;;;4.22;2.83;;;;;;;;;;2087631;28;20029;-79
2022/09/29 00:53:41;;;;;;;2.90;2.38;;;;;;;;;;2087491;28;20028;-79
2022/09/29 00:55:09;;;;;;;4.53;2.83;;;;;;;;;;2089757;28;20029;-79
2022/09/29 00:56:29;;;;;;;3.88;3.20;;;;;;;;;;2088499;28;20875;-79
2022/09/29 00:57:57;;;;;;;3.35;2.80;;;;;;;;;;2089386;28;20036;-79
2022/09/29 00:59:19;;;;;;;2.85;2.65;;;;;;;;;;2079637;28;20112;-79
2022/09/29 01:00:37;;;;;;;3.20;3.00;;;;;;;;;;2083433;28;20517;-79
2022/09/29 01:01:57;;;;;;;4.10;2.70;;;;;;;;;;2079428;28;20033;-79
2022/09/29 01:03:18;;;;;;;5.13;3.10;;;;;;;;;;2084713;28;20033;-79
2022/09/29 01:04:38;;;;;;;2.90;2.70;;;;;;;;;;2088661;28;20033;-79
2022/09/29 01:06:00;;;;;;;2.80;2.60;;;;;;;;;;2087118;28;20021;-78
2022/09/29 01:07:20;;;;;;;3.97;3.13;;;;;;;;;;2088470;28;20033;-79
2022/09/29 01:08:51;;;;;;;2.97;2.70;;;;;;;;;;2086751;28;20983;-78
2022/09/29 01:10:12;;;;;;;3.42;2.75;;;;;;;;;;2088586;28;20112;-79
2022/09/29 01:11:32;;;;;;;3.53;2.47;;;;;;;;;;2078846;28;20022;-79
2022/09/29 01:12:50;;;;;;;3.55;2.50;;;;;;;;;;2084318;28;20037;-79
2022/09/29 01:14:10;;;;;;;3.03;2.72;;;;;;;;;;2086465;28;20033;-79
2022/09/29 01:15:29;;;;;;;5.20;3.00;;;;;;;;;;2087002;28;20025;-79
2022/09/29 01:16:47;;;;;;;2.83;2.53;;;;;;;;;;2088608;28;20037;-79
2022/09/29 01:18:07;;;;;;;5.15;2.30;;;;;;;;;;2079531;28;20025;-79
2022/09/29 01:19:25;;;;;;;3.85;2.60;;;;;;;;;;2083950;28;20024;-79
2022/09/29 01:21:04;;;;;;;2.58;2.40;;;;;;;;;;2088370;28;20121;-79
2022/09/29 01:22:42;;;;;;;4.00;2.38;;;;;;;;;;2088255;28;20108;-79
2022/09/29 01:24:17;;;;;;;3.85;3.00;;;;;;;;;;2088224;28;20025;-79
2022/09/29 01:25:36;;;;;;;2.80;2.58;;;;;;;;;;2087616;28;20565;-79
2022/09/29 01:27:06;;;;;;;3.33;2.47;;;;;;;;;;2079568;28;20045;-79
2022/09/29 01:28:32;;;;;;;4.68;3.30;;;;;;;;;;2084331;28;20033;-79
2022/09/29 01:30:07;;;;;;;4.18;3.03;;;;;;;;;;2087642;28;20033;-79
2022/09/29 01:31:33;;;;;;;3.20;3.00;;;;;;;;;;2088344;28;20037;-79
2022/09/29 01:33:02;;;;;;;3.47;3.17;;;;;;;;;;2088576;28;20051;-79
2022/09/29 01:34:27;;;;;;;3.85;3.15;;;;;;;;;;2079476;28;20093;-79
2022/09/29 01:36:02;;;;;;;2.78;2.58;;;;;;;;;;2084214;28;20029;-79
2022/09/29 01:37:21;;;;;;;3.10;2.90;;;;;;;;;;2087866;28;20029;-79
2022/09/29 01:38:59;;;;;;;3.22;2.92;;;;;;;;;;2087253;28;20457;-79
2022/09/29 01:40:44;;;;;;;4.30;3.05;;;;;;;;;;2087248;28;20478;-79
2022/09/29 01:42:10;;;;;;;2.63;2.42;;;;;;;;;;2086649;28;20911;-79
2022/09/29 01:43:35;;;;;;;3.25;2.85;;;;;;;;;;2077701;28;20600;-79
2022/09/29 01:44:56;;;;;;;3.42;3.15;;;;;;;;;;2085084;28;20076;-79
2022/09/29 01:46:20;;;;;;;4.00;3.50;;;;;;;;;;2088648;28;20041;-79
2022/09/29 01:47:46;;;;;;;5.57;2.78;;;;;;;;;;2087188;28;20017;-79
2022/09/29 01:49:05;;;;;;;3.83;3.30;;;;;;;;;;2086516;28;20033;-79
2022/09/29 01:50:28;;;;;;;3.80;3.20;;;;;;;;;;2079802;28;20021;-79
2022/09/29 01:51:54;;;;;;;4.32;3.35;;;;;;;;;;2074752;28;20029;-79
2022/09/29 01:53:17;;;;;;;3.35;3.15;;;;;;;;;;2077344;28;20117;-79
2022/09/29 01:54:36;;;;;;;3.13;2.92;;;;;;;;;;2084374;28;20036;-79
2022/09/29 01:55:59;;;;;;;4.95;3.17;;;;;;;;;;2085354;28;20033;-79
2022/09/29 01:57:22;;;;;;;3.28;2.97;;;;;;;;;;2079360;28;20037;-79
2022/09/29 01:58:59;;;;;;;4.00;2.95;;;;;;;;;;2085355;28;20037;-79
2022/09/29 02:00:18;;;;;;;3.22;3.03;;;;;;;;;;2077946;28;20581;-79
2022/09/29 02:01:39;;;;;;;4.38;3.22;;;;;;;;;;2085069;28;20033;-79
2022/09/29 02:03:04;;;;;;;3.45;3.15;;;;;;;;;;2080367;28;20037;-79
2022/09/29 02:04:44;;;;;;;6.18;3.15;;;;;;;;;;2075697;28;20037;-79
2022/09/29 02:06:15;;;;;;;3.58;3.28;;;;;;;;;;2086100;28;20115;-79
2022/09/29 02:07:37;;;;;;;3.72;3.30;;;;;;;;;;2087214;28;20525;-79
2022/09/29 02:08:57;;;;;;;3.50;3.20;;;;;;;;;;2086852;28;20112;-79
2022/09/29 02:10:27;;;;;;;3.42;3.13;;;;;;;;;;2088964;28;20025;-79
2022/09/29 02:11:48;;;;;;;3.58;3.17;;;;;;;;;;2080094;28;20033;-79
2022/09/29 02:13:09;;;;;;;3.83;3.53;;;;;;;;;;2085292;28;20017;-79
2022/09/29 02:14:30;;;;;;;5.75;3.50;;;;;;;;;;2085940;28;20393;-79
2022/09/29 02:15:51;;;;;;;5.22;3.20;;;;;;;;;;2076098;28;20080;-79
2022/09/29 02:17:18;;;;;;;4.30;3.78;;;;;;;;;;2075597;28;20038;-79
2022/09/29 02:18:50;;;;;;;5.00;3.47;;;;;;;;;;2078219;28;20042;-79
2022/09/29 02:20:10;;;;;;;3.90;3.63;;;;;;;;;;2077052;28;20034;-79
2022/09/29 02:21:29;;;;;;;4.95;3.83;;;;;;;;;;2084606;28;20072;-79
2022/09/29 02:22:48;;;;;;;3.97;3.67;;;;;;;;;;2087911;28;20343;-79
2022/09/29 02:24:09;;;;;;;4.18;3.78;;;;;;;;;;2079331;28;20033;-79
2022/09/29 02:25:28;;;;;;;4.03;3.72;;;;;;;;;;2083285;28;20041;-79
2022/09/29 02:26:47;;;;;;;4.93;3.50;;;;;;;;;;2087249;28;20389;-79
2022/09/29 02:28:06;;;;;;;4.07;3.45;;;;;;;;;;2078629;28;20057;-79
2022/09/29 02:29:26;;;;;;;5.03;4.07;;;;;;;;;;2083613;28;20041;-79
2022/09/29 02:30:44;;;;;;;4.25;3.85;;;;;;;;;;2085501;28;20052;-79
2022/09/29 02:32:04;;;;;;;4.38;3.97;;;;;;;;;;2088639;28;20033;-79
2022/09/29 02:33:24;;;;;;;4.15;3.85;;;;;;;;;;2087430;28;20025;-78
2022/09/29 02:34:45;;;;;;;4.25;3.75;;;;;;;;;;2087630;28;20033;-78
2022/09/29 02:36:12;;;;;;;5.22;4.35;;;;;;;;;;2084973;28;20101;-78
2022/09/29 02:37:37;;;;;;;5.38;4.03;;;;;;;;;;2088031;28;20562;-78
2022/09/29 02:39:22;;;;;;;5.95;3.65;;;;;;;;;;2088905;28;20064;-79
2022/09/29 02:41:06;;;;;;;4.45;4.15;;;;;;;;;;2061563;28;20033;-78
2022/09/29 02:42:34;;;;;;;4.70;4.30;;;;;;;;;;2087657;28;20080;-79
2022/09/29 02:44:12;;;;;;;9.00;4.65;;;;;;;;;;2078419;28;20041;-79
2022/09/29 02:45:39;;;;;;;4.47;3.97;;;;;;;;;;2076692;28;20649;-79
2022/09/29 02:46:58;;;;;;;5.43;4.28;;;;;;;;;;2078032;28;20108;-79
2022/09/29 02:48:32;;;;;;;4.20;4.00;;;;;;;;;;2083942;28;20068;-79
2022/09/29 02:50:06;;;;;;;5.28;4.88;;;;;;;;;;2079261;28;20116;-79
2022/09/29 02:51:36;;;;;;;4.20;3.88;;;;;;;;;;2085826;28;20037;-79
2022/09/29 02:53:02;;;;;;;5.47;3.60;;;;;;;;;;2088723;28;20029;-79
2022/09/29 02:54:24;;;;;;;5.13;4.72;;;;;;;;;;2085912;28;20033;-79
2022/09/29 02:56:02;;;;;;;5.05;4.38;;;;;;;;;;2084908;28;20037;-79
2022/09/29 02:57:33;;;;;;;4.72;4.38;;;;;;;;;;2079288;28;20486;-79
2022/09/29 02:59:00;;;;;;;5.05;4.65;;;;;;;;;;2086107;28;20490;-79
2022/09/29 03:00:20;;;;;;;6.43;4.55;;;;;;;;;;2088395;28;20103;-79
2022/09/29 03:01:46;;;;;;;8.05;4.40;;;;;;;;;;2080789;28;20113;-78
2022/09/29 03:03:05;;;;;;;9.30;4.60;;;;;;;;;;2077338;28;20033;-79
2022/09/29 03:04:25;;;;;;;11.10;4.40;;;;;;;;;;2085114;28;20041;-79
2022/09/29 03:05:44;;;;;;;7.32;4.30;;;;;;;;;;2087281;28;20713;-79
2022/09/29 03:07:03;;;;;;;5.32;4.43;;;;;;;;;;2089465;28;20033;-78
2022/09/29 03:08:22;;;;;;;5.45;4.35;;;;;;;;;;2089719;28;20049;-78
2022/09/29 03:09:41;;;;;;;5.57;4.53;;;;;;;;;;2089815;28;20021;-78
2022/09/29 03:11:00;;;;;;;4.55;4.03;;;;;;;;;;2079618;28;20033;-78
2022/09/29 03:12:19;;;;;;;5.05;4.60;;;;;;;;;;2080161;28;20506;-78
2022/09/29 03:13:38;;;;;;;4.25;3.95;;;;;;;;;;2085245;28;20025;-78
2022/09/29 03:14:57;;;;;;;5.50;5.00;;;;;;;;;;2081772;28;20025;-78
2022/09/29 03:16:16;;;;;;;4.95;4.45;;;;;;;;;;2085912;28;20029;-78
2022/09/29 03:17:35;;;;;;;5.18;4.35;;;;;;;;;;2089885;28;20057;-78
2022/09/29 03:18:55;;;;;;;4.40;4.00;;;;;;;;;;2080425;28;20042;-78
2022/09/29 03:20:14;;;;;;;6.50;4.25;;;;;;;;;;2078465;28;20125;-78
2022/09/29 03:21:34;;;;;;;4.47;4.15;;;;;;;;;;2085604;28;20460;-78
2022/09/29 03:22:56;;;;;;;8.13;4.50;;;;;;;;;;2087321;28;20045;-78
2022/09/29 03:24:15;;;;;;;4.45;4.05;;;;;;;;;;2087811;28;20028;-78
2022/09/29 03:25:34;;;;;;;4.43;4.13;;;;;;;;;;2087093;28;20037;-78
2022/09/29 03:26:53;;;;;;;5.38;4.15;;;;;;;;;;2081036;28;20029;-78
2022/09/29 03:28:12;;;;;;;5.85;3.92;;;;;;;;;;2077596;28;20041;-78
2022/09/29 03:29:31;;;;;;;5.13;4.72;;;;;;;;;;2085088;28;20033;-78
2022/09/29 03:30:49;;;;;;;4.85;4.45;;;;;;;;;;2086958;28;20022;-78
2022/09/29 03:32:08;;;;;;;5.03;3.92;;;;;;;;;;2080007;28;20431;-78
2022/09/29 03:33:27;;;;;;;6.43;4.65;;;;;;;;;;2085615;28;20041;-79
2022/09/29 03:34:46;;;;;;;4.30;3.92;;;;;;;;;;2077745;28;20033;-79
2022/09/29 03:36:05;;;;;;;8.00;4.88;;;;;;;;;;2077872;28;20490;-78
2022/09/29 03:37:24;;;;;;;5.10;4.57;;;;;;;;;;2079399;28;20033;-79
2022/09/29 03:38:45;;;;;;;6.13;4.20;;;;;;;;;;2077560;28;20037;-78
2022/09/29 03:40:05;;;;;;;6.70;5.07;;;;;;;;;;2085686;28;20436;-79
2022/09/29 03:41:23;;;;;;;5.88;4.30;;;;;;;;;;2079019;28;20666;-79
2022/09/29 03:42:44;;;;;;;5.28;3.88;;;;;;;;;;2086057;28;20449;-79
2022/09/29 03:44:03;;;;;;;5.18;4.28;;;;;;;;;;2089037;28;20034;-79
2022/09/29 03:45:22;;;;;;;4.93;4.43;;;;;;;;;;2079753;28;20574;-79
2022/09/29 03:46:41;;;;;;;4.63;4.22;;;;;;;;;;2076071;28;20029;-79
2022/09/29 03:48:00;;;;;;;4.47;3.97;;;;;;;;;;2086395;28;20029;-79
2022/09/29 03:49:19;;;;;;;6.60;4.40;;;;;;;;;;2080154;28;20041;-78
2022/09/29 03:50:37;;;;;;;5.05;4.30;;;;;;;;;;2085384;28;20029;-79
2022/09/29 03:51:56;;;;;;;5.47;4.50;;;;;;;;;;2086362;28;20025;-78
2022/09/29 03:53:15;;;;;;;5.07;4.57;;;;;;;;;;2087731;28;20024;-79
2022/09/29 03:54:34;;;;;;;4.95;4.35;;;;;;;;;;2077885;28;20073;-79
2022/09/29 03:55:53;;;;;;;6.03;4.55;;;;;;;;;;2076196;28;20069;-79
2022/09/29 03:57:12;;;;;;;4.75;4.00;;;;;;;;;;2084779;28;20041;-79
2022/09/29 03:58:31;;;;;;;5.10;4.22;;;;;;;;;;2088256;28;20029;-79
2022/09/29 03:59:52;;;;;;;5.72;4.50;;;;;;;;;;2088224;28;20036;-78
2022/09/29 04:01:11;;;;;;;4.72;4.32;;;;;;;;;;2084075;28;20036;-79
2022/09/29 04:02:29;;;;;;;4.97;4.57;;;;;;;;;;2088415;28;20477;-79
2022/09/29 04:03:48;;;;;;;7.03;4.10;;;;;;;;;;2088702;28;20075;-79
2022/09/29 04:05:07;;;;;;;6.68;4.35;;;;;;;;;;2086313;28;20049;-79
2022/09/29 04:06:26;;;;;;;5.97;4.25;;;;;;;;;;2089511;28;20032;-79
2022/09/29 04:07:45;;;;;;;4.68;4.25;;;;;;;;;;2078737;28;20030;-78
2022/09/29 04:09:04;;;;;;;7.75;4.57;;;;;;;;;;2084188;28;20037;-79
2022/09/29 04:10:23;;;;;;;5.07;4.68;;;;;;;;;;2079012;28;20385;-79
2022/09/29 04:11:41;;;;;;;5.20;4.70;;;;;;;;;;2077077;28;20022;-79
2022/09/29 04:13:00;;;;;;;10.52;5.18;;;;;;;;;;2084370;28;20436;-76
2022/09/29 04:14:19;;;;;;;6.03;4.65;;;;;;;;;;2090983;28;20052;-78
2022/09/29 04:15:38;;;;;;;5.72;4.97;;;;;;;;;;2085011;28;20044;-78
2022/09/29 04:16:57;;;;;;;6.43;4.55;;;;;;;;;;2079419;28;20029;-78
2022/09/29 04:18:16;;;;;;;7.80;5.10;;;;;;;;;;2077255;28;20033;-78
2022/09/29 04:19:35;;;;;;;5.38;4.85;;;;;;;;;;2084283;28;20041;-78
2022/09/29 04:20:59;;;;;;;7.30;4.75;;;;;;;;;;2084335;28;20045;-78
2022/09/29 04:22:18;;;;;;;5.10;4.40;;;;;;;;;;2077579;28;20034;-78
2022/09/29 04:23:37;;;;;;;5.82;4.72;;;;;;;;;;2077891;28;20044;-78
2022/09/29 04:24:57;;;;;;;5.25;4.75;;;;;;;;;;2079669;28;20041;-78
2022/09/29 04:26:16;;;;;;;7.30;4.68;;;;;;;;;;2083528;28;20037;-78
2022/09/29 04:27:35;;;;;;;5.80;5.15;;;;;;;;;;2087340;28;20017;-78
2022/09/29 04:28:54;;;;;;;8.23;5.47;;;;;;;;;;2079965;28;20041;-79
2022/09/29 04:30:14;;;;;;;5.43;4.80;;;;;;;;;;2080622;28;20052;-79
2022/09/29 04:31:33;;;;;;;5.38;4.57;;;;;;;;;;2088784;28;20025;-79
2022/09/29 04:32:52;;;;;;;6.00;4.85;;;;;;;;;;2087837;28;20045;-79
2022/09/29 04:34:11;;;;;;;6.38;5.22;;;;;;;;;;2089000;28;20025;-79
2022/09/29 04:35:30;;;;;;;5.30;4.88;;;;;;;;;;2088068;28;20029;-79
2022/09/29 04:36:49;;;;;;;6.70;5.43;;;;;;;;;;2079825;28;20029;-78
2022/09/29 04:38:08;;;;;;;5.57;4.93;;;;;;;;;;2084044;28;20033;-80
2022/09/29 04:39:27;;;;;;;7.55;5.53;;;;;;;;;;2088581;28;20029;-79
2022/09/29 04:40:46;;;;;;;6.03;5.18;;;;;;;;;;2078628;28;20485;-79
2022/09/29 04:42:05;;;;;;;8.63;5.18;;;;;;;;;;2085333;28;20130;-79
2022/09/29 04:43:24;;;;;;;5.80;5.32;;;;;;;;;;2089279;28;20410;-80
2022/09/29 04:44:43;;;;;;;5.68;5.13;;;;;;;;;;2088070;28;20521;-81
2022/09/29 04:46:03;;;;;;;5.25;4.20;;;;;;;;;;2075526;28;20104;-79
2022/09/29 04:47:22;;;;;;;6.28;4.55;;;;;;;;;;2080075;28;20025;-78
2022/09/29 04:48:41;;;;;;;5.22;4.70;;;;;;;;;;2083756;28;20029;-79
2022/09/29 04:50:00;;;;;;;5.85;4.68;;;;;;;;;;2077710;28;20021;-77
2022/09/29 04:51:19;;;;;;;7.75;4.90;;;;;;;;;;2073670;28;20101;-82
2022/09/29 04:52:40;;;;;;;6.63;4.40;;;;;;;;;;2083675;28;20060;-79
2022/09/29 04:53:59;;;;;;;5.20;4.60;;;;;;;;;;2087965;28;20526;-80
2022/09/29 04:55:18;;;;;;;8.25;4.82;;;;;;;;;;2087937;28;20060;-79
2022/09/29 04:56:36;;;;;;;6.38;5.10;;;;;;;;;;2087728;28;20029;-79
2022/09/29 04:57:56;;;;;;;7.35;5.18;;;;;;;;;;2087183;28;20550;-78
2022/09/29 04:59:16;;;;;;;4.97;4.55;;;;;;;;;;2087852;28;20390;-78
2022/09/29 05:00:35;;;;;;;5.18;4.68;;;;;;;;;;2077016;28;20034;-78
2022/09/29 05:01:54;;;;;;;8.95;4.93;;;;;;;;;;2084177;28;20498;-79
2022/09/29 05:03:13;;;;;;;6.97;5.47;;;;;;;;;;2078541;28;20033;-79
2022/09/29 05:04:32;;;;;;;6.03;5.43;;;;;;;;;;2077281;28;20029;-79
2022/09/29 05:05:53;;;;;;;7.00;6.03;;;;;;;;;;2082925;28;20045;-79
2022/09/29 05:07:13;;;;;;;11.38;7.20;;;;;;;;;;2088232;28;20021;-79
2022/09/29 05:08:32;;;;;;;8.02;5.70;;;;;;;;;;2086180;28;20029;-79
2022/09/29 05:09:51;;;;;;;8.65;5.53;;;;;;;;;;2077600;28;20069;-79
2022/09/29 05:11:10;;;;;;;7.88;5.40;;;;;;;;;;2082965;28;20033;-79
2022/09/29 05:12:28;;;;;;;5.07;4.68;;;;;;;;;;2078739;28;20021;-78
2022/09/29 05:13:49;;;;;;;5.70;5.20;;;;;;;;;;2084468;28;20103;-79
2022/09/29 05:15:08;;;;;;;6.93;5.20;;;;;;;;;;2087278;28;20109;-78
2022/09/29 05:16:26;;;;;;;8.77;6.65;;;;;;;;;;2083580;28;20116;-79
2022/09/29 05:17:45;;;;;;;9.23;6.60;;;;;;;;;;2084613;28;20424;-79
2022/09/29 05:19:04;;;;;;;10.32;6.07;;;;;;;;;;2078904;28;20513;-79
2022/09/29 05:20:24;;;;;;;8.60;6.10;;;;;;;;;;2084735;28;20037;-80
2022/09/29 05:21:43;;;;;;;6.15;5.38;;;;;;;;;;2076876;28;20041;-81
2022/09/29 05:23:07;;;;;;;5.45;5.03;;;;;;;;;;2083843;28;20019;-79
2022/09/29 05:24:26;;;;;;;13.10;9.07;;;;;;;;;;2074617;28;20525;-79
2022/09/29 05:25:45;;;;;;;16.40;9.80;;;;;;;;;;2077067;28;20501;-78
2022/09/29 05:27:04;;;;;;;12.52;8.23;;;;;;;;;;2071520;28;20034;-79
2022/09/29 05:28:22;;;;;;;10.18;8.20;;;;;;;;;;2073234;28;20029;-78
2022/09/29 05:29:42;;;;;;;11.73;6.88;;;;;;;;;;2077519;28;20128;-79
2022/09/29 05:31:05;;;;;;;7.70;7.00;;;;;;;;;;2085670;28;20489;-78
2022/09/29 05:32:24;;;;;;;;;;;;;;;;;;2080440;28;20029;-77
2022/09/29 05:33:43;;;;;;;8.02;6.88;;;;;;;;;;2074151;28;19905;-79
2022/09/29 05:35:02;;;;;;;7.18;6.47;;;;;;;;;;2082644;28;20021;-79
2022/09/29 05:36:22;;;;;;;6.82;6.18;;;;;;;;;;2087787;28;20517;-79
2022/09/29 05:37:41;;;;;;;7.07;6.03;;;;;;;;;;2088676;28;20079;-79
2022/09/29 05:39:00;;;;;;;7.15;6.15;;;;;;;;;;2079732;28;21098;-79
2022/09/29 05:40:18;;;;;;;9.68;8.05;;;;;;;;;;2079552;28;20030;-79
2022/09/29 05:41:37;;;;;;;8.85;7.00;;;;;;;;;;2075031;28;20482;-79
2022/09/29 05:42:57;;;;;;;8.80;6.13;;;;;;;;;;2084691;28;20085;-79
2022/09/29 05:44:16;;;;;;;10.40;8.10;;;;;;;;;;2089448;28;20033;-79
2022/09/29 05:45:35;;;;;;;7.45;6.75;;;;;;;;;;2078768;28;20507;-79
2022/09/29 05:46:53;;;;;;;7.97;6.97;;;;;;;;;;2084453;28;20032;-79
2022/09/29 05:48:13;;;;;;;8.65;6.70;;;;;;;;;;2079899;28;20116;-79
2022/09/29 05:49:32;;;;;;;6.97;6.28;;;;;;;;;;2084910;28;20453;-79
2022/09/29 05:50:50;;;;;;;6.90;6.32;;;;;;;;;;2087742;28;20028;-79
2022/09/29 05:52:10;;;;;;;11.10;6.82;;;;;;;;;;2078025;28;20490;-79
2022/09/29 05:53:29;;;;;;;15.38;6.65;;;;;;;;;;2075409;28;20503;-79
2022/09/29 05:54:50;;;;;;;11.77;7.18;;;;;;;;;;2085288;28;20440;-78
2022/09/29 05:56:10;;;;;;;9.02;7.45;;;;;;;;;;2088066;28;20432;-77
2022/09/29 05:57:30;;;;;;;8.68;7.57;;;;;;;;;;2088385;28;20417;-78
2022/09/29 05:58:49;;;;;;;8.52;7.03;;;;;;;;;;2079743;28;20025;-78
2022/09/29 06:00:09;;;;;;;12.88;6.28;;;;;;;;;;2074469;28;20037;-79
2022/09/29 06:01:28;;;;;;;9.68;7.40;;;;;;;;;;2081883;28;20139;-78
2022/09/29 06:02:47;;;;;;;8.13;6.35;;;;;;;;;;2087773;28;20033;-79
2022/09/29 06:04:06;;;;;;;5.70;4.90;;;;;;;;;;2088541;28;20033;-78
2022/09/29 06:05:25;;;;;;;9.43;7.70;;;;;;;;;;2079568;28;20034;-78
2022/09/29 06:06:45;;;;;;;13.68;10.02;;;;;;;;;;2076093;28;20144;-78
2022/09/29 06:08:04;;;;;;;8.70;7.80;;;;;;;;;;2084213;28;20065;-78
2022/09/29 06:09:23;;;;;;;6.82;5.55;;;;;;;;;;2079323;28;20022;-78
2022/09/29 06:10:42;;;;;;;7.18;5.93;;;;;;;;;;2084596;28;20021;-78
2022/09/29 06:12:01;;;;;;;7.25;6.50;;;;;;;;;;2087558;28;20025;-78
2022/09/29 06:13:20;;;;;;;20.98;15.65;;;;;;;;;;2088059;28;20025;-78
2022/09/29 06:14:39;;;;;;;10.75;8.05;;;;;;;;;;2079871;28;20409;-78
2022/09/29 06:15:58;;;;;;;7.82;6.63;;;;;;;;;;2084092;28;20029;-78
2022/09/29 06:17:17;;;;;;;9.65;5.65;;;;;;;;;;2078598;28;20053;-78
2022/09/29 06:18:36;;;;;;;7.55;5.18;;;;;;;;;;2076771;28;20065;-78
2022/09/29 06:19:55;;;;;;;7.15;5.47;;;;;;;;;;2085378;28;20045;-78
2022/09/29 06:21:16;;;;;;;7.70;5.80;;;;;;;;;;2078210;28;20038;-78
2022/09/29 06:22:35;;;;;;;8.27;5.47;;;;;;;;;;2084636;28;20079;-78
2022/09/29 06:23:54;;;;;;;6.70;5.35;;;;;;;;;;2088138;28;20025;-78
2022/09/29 06:25:13;;;;;;;8.73;6.97;;;;;;;;;;2088971;28;20037;-78
2022/09/29 06:26:32;;;;;;;9.40;5.32;;;;;;;;;;2088295;28;20033;-78
2022/09/29 06:27:52;;;;;;;5.38;4.88;;;;;;;;;;2077953;28;20510;-78
2022/09/29 06:29:14;;;;;;;4.95;4.55;;;;;;;;;;2084428;28;20060;-78
2022/09/29 06:30:33;;;;;;;5.25;4.78;;;;;;;;;;2076996;28;20482;-78
2022/09/29 06:31:53;;;;;;;7.43;5.10;;;;;;;;;;2083847;28;20029;-78
2022/09/29 06:33:11;;;;;;;7.22;5.47;;;;;;;;;;2090369;28;20025;-79
2022/09/29 06:34:30;;;;;;;6.65;4.65;;;;;;;;;;2095061;28;20044;-79
2022/09/29 06:37:33;;;;;;;7.10;5.57;;;;;;;;;;2091950;28;20041;-79
2022/09/29 06:38:52;;;;;;;9.05;6.07;;;;;;;;;;2082884;28;20420;-79
2022/09/29 06:40:12;;;;;;;6.00;5.20;;;;;;;;;;2083883;28;20057;-79
2022/09/29 06:41:30;;;;;;;6.38;5.50;;;;;;;;;;2079761;28;20030;-79
2022/09/29 06:42:49;;;;;;;6.50;5.90;;;;;;;;;;2078669;28;20466;-78
2022/09/29 06:44:09;;;;;;;6.00;4.90;;;;;;;;;;2087153;28;20139;-78
2022/09/29 06:45:27;;;;;;;5.68;4.38;;;;;;;;;;2080142;28;20038;-77
2022/09/29 06:46:46;;;;;;;5.80;4.60;;;;;;;;;;2085724;28;20107;-78
2022/09/29 06:48:08;;;;;;;6.30;4.50;;;;;;;;;;2089664;28;20498;-77
2022/09/29 06:49:27;;;;;;;4.22;3.80;;;;;;;;;;2081183;28;20029;-79
2022/09/29 06:50:47;;;;;;;4.00;3.03;;;;;;;;;;2076141;28;20029;-78
2022/09/29 06:52:06;;;;;;;5.20;2.95;;;;;;;;;;2086224;28;20036;-79
2022/09/29 06:53:25;;;;;;;2.70;2.60;;;;;;;;;;2089040;28;20029;-79
2022/09/29 06:54:44;;;;;;;5.00;2.97;;;;;;;;;;2088720;28;20029;-79
2022/09/29 06:56:03;;;;;;;3.28;2.97;;;;;;;;;;2081642;28;20037;-79
2022/09/29 06:57:22;;;;;;;6.00;2.97;;;;;;;;;;2086310;28;20107;-79
2022/09/29 06:58:41;;;;;;;3.20;2.88;;;;;;;;;;2081289;28;20064;-79
2022/09/29 07:00:00;;;;;;;3.40;2.80;;;;;;;;;;2080518;28;20065;-78
2022/09/29 07:01:19;;;;;;;5.93;3.30;;;;;;;;;;2086027;28;20025;-79
2022/09/29 07:02:38;;;;;;;12.77;7.32;;;;;;;;;;2078918;28;21087;-79
2022/09/29 07:03:59;;;;;;;5.38;3.80;;;;;;;;;;2086136;28;20132;-79
2022/09/29 07:05:18;;;;;;;5.05;3.03;;;;;;;;;;2090226;28;20037;-79
2022/09/29 07:06:37;;;;;;;5.03;4.05;;;;;;;;;;2090590;28;20120;-79
2022/09/29 07:07:57;;;;;;;5.30;4.57;;;;;;;;;;2089023;28;20112;-79
2022/09/29 07:09:17;;;;;;;7.93;4.07;;;;;;;;;;2090367;28;20021;-79
2022/09/29 07:10:35;;;;;;;8.98;5.97;;;;;;;;;;2090089;28;20040;-79
2022/09/29 07:11:54;;;;;;;5.32;3.47;;;;;;;;;;2085471;28;20025;-79
2022/09/29 07:13:13;;;;;;;3.13;2.45;;;;;;;;;;2091433;28;20085;-79
2022/09/29 07:14:32;;;;;;;2.13;2.00;;;;;;;;;;2082848;28;20061;-79
2022/09/29 07:15:53;;;;;;;2.60;2.10;;;;;;;;;;2085205;28;20028;-79
2022/09/29 07:17:14;;;;;;;2.58;2.38;;;;;;;;;;2079171;28;20037;-79
2022/09/29 07:18:39;;;;;;;2.60;2.40;;;;;;;;;;2087814;28;20097;-80
2022/09/29 07:19:58;;;;;;;3.65;2.10;;;;;;;;;;2080466;28;20037;-80
2022/09/29 07:21:18;;;;;;;2.70;2.50;;;;;;;;;;2075933;28;20088;-79
2022/09/29 07:22:36;;;;;;;3.50;2.42;;;;;;;;;;2085423;28;20029;-78
2022/09/29 07:23:55;;;;;;;2.92;2.72;;;;;;;;;;2080976;28;20026;-78
2022/09/29 07:25:14;;;;;;;2.38;2.10;;;;;;;;;;2085686;28;20029;-78
2022/09/29 07:26:33;;;;;;;3.45;2.30;;;;;;;;;;2086893;28;20029;-79
2022/09/29 07:27:52;;;;;;;3.20;2.20;;;;;;;;;;2087650;28;20429;-78
2022/09/29 07:29:11;;;;;;;4.10;1.98;;;;;;;;;;2090039;28;20397;-79
2022/09/29 07:30:30;;;;;;;2.22;2.10;;;;;;;;;;2077100;28;20584;-80
2022/09/29 07:31:51;;;;;;;2.92;2.50;;;;;;;;;;2079804;28;20037;-80
2022/09/29 07:33:10;;;;;;;4.28;2.20;;;;;;;;;;2084823;28;20549;-80
2022/09/29 07:34:29;;;;;;;3.70;2.10;;;;;;;;;;2089971;28;20493;-80
2022/09/29 07:35:50;;;;;;;2.67;2.47;;;;;;;;;;2079290;28;20417;-80
2022/09/29 07:37:10;;;;;;;3.63;2.70;;;;;;;;;;2085831;28;20147;-79
2022/09/29 07:38:29;;;;;;;3.55;2.10;;;;;;;;;;2088130;28;20041;-79
2022/09/29 07:39:49;;;;;;;1.95;1.85;;;;;;;;;;2087299;28;20053;-79
2022/09/29 07:41:10;;;;;;;2.10;2.00;;;;;;;;;;2080547;28;20022;-80
2022/09/29 07:42:29;;;;;;;2.28;2.08;;;;;;;;;;2088821;28;20052;-80
2022/09/29 07:43:48;;;;;;;2.40;1.95;;;;;;;;;;2089149;28;20119;-81
2022/09/29 07:45:07;;;;;;;3.60;2.58;;;;;;;;;;2088908;28;20021;-79
2022/09/29 07:46:26;;;;;;;3.83;2.40;;;;;;;;;;2079803;28;20041;-79
2022/09/29 07:47:45;;;;;;;2.45;2.22;;;;;;;;;;2084693;28;20029;-79
2022/09/29 07:49:04;;;;;;;2.83;2.60;;;;;;;;;;2079618;28;20061;-79
2022/09/29 07:50:23;;;;;;;2.30;2.03;;;;;;;;;;2084330;28;20021;-79
2022/09/29 07:51:42;;;;;;;2.80;2.60;;;;;;;;;;2087621;28;20025;-79
2022/09/29 07:53:02;;;;;;;3.70;2.50;;;;;;;;;;2079210;28;20025;-79
2022/09/29 07:54:21;;;;;;;2.30;2.10;;;;;;;;;;2085674;28;20032;-79
2022/09/29 07:55:40;;;;;;;4.88;3.00;;;;;;;;;;2088471;28;20029;-79
2022/09/29 07:57:01;;;;;;;3.53;3.22;;;;;;;;;;2086484;28;20021;-79
2022/09/29 07:58:20;;;;;;;3.78;2.90;;;;;;;;;;2087209;28;20052;-79
2022/09/29 07:59:39;;;;;;;5.07;2.78;;;;;;;;;;2088028;28;20385;-79
2022/09/29 08:00:59;;;;;;;7.13;2.53;;;;;;;;;;2085244;28;20029;-80
2022/09/29 08:02:17;;;;;;;2.60;2.28;;;;;;;;;;2077149;28;20025;-79
2022/09/29 08:03:37;;;;;;;4.10;1.77;;;;;;;;;;2069740;28;20025;-79
2022/09/29 08:04:57;;;;;;;2.80;1.80;;;;;;;;;;2084078;28;20017;-79
2022/09/29 08:06:16;;;;;;;2.85;2.17;;;;;;;;;;2088329;28;20456;-80